Time;durP1;ratioP1;P1;durP2;ratioP2;P2;SDS_P1;SDS_P2;PMS_P1;PMS_P2;Temp;Humidity;BMP_temperature;BMP_pressure;BME280_temperature;BME280_humidity;BME280_pressure;Samples;Min_cycle;Max_cycle;Signal;HPM_P1;HPM_P2
2022/03/19 00:02:32;;;;;;;23.43;15.90;;;2.10;99.90;1.90;98902.00;;;;5050932;28;20512;-86
2022/03/19 00:05:22;;;;;;;24.93;17.20;;;2.00;99.90;1.80;98895.00;;;;5052793;28;20833;-86
2022/03/19 00:08:11;;;;;;;21.73;15.63;;;1.90;99.90;1.90;98905.00;;;;5052378;28;20436;-86
2022/03/19 00:11:00;;;;;;;26.37;17.27;;;1.80;99.90;1.80;98898.00;;;;5052579;28;20807;-86
2022/03/19 00:13:50;;;;;;;22.03;16.90;;;1.70;99.90;2.00;98901.00;;;;5064453;28;20995;-86
2022/03/19 00:16:39;;;;;;;24.87;16.00;;;1.70;99.90;1.90;98896.00;;;;5062578;28;20445;-86
2022/03/19 00:19:29;;;;;;;23.67;19.17;;;1.80;99.90;1.80;98896.00;;;;5053378;28;20963;-86
2022/03/19 00:22:18;;;;;;;20.03;16.50;;;1.70;99.90;1.70;98895.00;;;;5050796;28;20537;-86
2022/03/19 00:25:11;;;;;;;20.27;16.17;;;1.60;99.90;1.80;98892.00;;;;5061106;28;20857;-86
2022/03/19 00:28:00;;;;;;;20.77;15.83;;;1.60;99.90;1.90;98900.00;;;;5059607;28;20423;-86
2022/03/19 00:30:50;;;;;;;20.83;15.97;;;1.60;99.90;1.80;98893.00;;;;5063229;28;20819;-86
2022/03/19 00:33:39;;;;;;;27.53;17.67;;;1.60;99.90;1.50;98881.00;;;;5068811;28;20455;-86
2022/03/19 00:36:28;;;;;;;24.17;17.63;;;1.50;99.90;1.50;98878.00;;;;5057552;28;20982;-86
2022/03/19 00:39:17;;;;;;;24.23;18.13;;;1.40;99.90;1.30;98879.00;;;;5057859;28;20484;-86
2022/03/19 00:42:06;;;;;;;25.60;17.23;;;1.40;99.90;1.20;98876.00;;;;5051235;28;20454;-86
2022/03/19 00:44:55;;;;;;;28.23;17.67;;;1.30;99.90;1.20;98868.00;;;;5050538;28;20479;-86
2022/03/19 00:47:45;;;;;;;24.23;18.33;;;1.20;99.90;1.30;98876.00;;;;5051369;28;20955;-86
2022/03/19 00:50:34;;;;;;;25.37;18.20;;;1.20;99.90;1.20;98875.00;;;;5051772;28;20801;-86
2022/03/19 00:53:23;;;;;;;21.83;15.23;;;1.10;99.90;1.00;98857.00;;;;5061868;28;20845;-86
2022/03/19 00:56:12;;;;;;;24.43;16.97;;;1.00;99.90;0.90;98852.00;;;;5054150;28;20492;-86
2022/03/19 00:59:01;;;;;;;24.17;16.83;;;1.00;99.90;0.70;98854.00;;;;5055469;28;21051;-86
2022/03/19 01:01:49;;;;;;;24.93;17.27;;;0.80;99.90;0.90;98858.00;;;;5051255;28;20469;-87
2022/03/19 01:04:40;;;;;;;26.63;18.03;;;1.20;99.90;0.90;98855.00;;;;5057656;28;20467;-86
2022/03/19 01:07:28;;;;;;;26.40;17.40;;;0.70;99.90;0.90;98850.00;;;;5047899;28;20420;-86
2022/03/19 01:10:23;;;;;;;22.87;17.13;;;1.00;99.90;1.00;98853.00;;;;5049466;28;20435;-86
2022/03/19 01:13:12;;;;;;;23.30;17.67;;;0.70;99.90;0.80;98850.00;;;;5058077;28;20932;-86
2022/03/19 01:16:02;;;;;;;23.93;16.13;;;0.80;99.90;0.30;98851.00;;;;5068732;28;20431;-86
2022/03/19 01:18:51;;;;;;;27.73;18.77;;;0.70;99.90;0.30;98839.00;;;;5062654;28;20420;-86
2022/03/19 01:21:42;;;;;;;23.40;17.10;;;0.50;99.90;0.20;98840.00;;;;5051437;28;20966;-86
2022/03/19 01:24:31;;;;;;;19.67;16.87;;;0.40;99.90;0.00;98846.00;;;;5053374;28;20425;-86
2022/03/19 01:27:20;;;;;;;24.07;16.87;;;0.80;99.90;0.50;98841.00;;;;5051806;28;20450;-86
2022/03/19 01:30:12;;;;;;;29.90;19.53;;;0.80;99.90;0.60;98848.00;;;;5050745;28;20423;-87
2022/03/19 01:33:01;;;;;;;22.80;17.47;;;0.40;99.90;0.70;98840.00;;;;5048253;28;20980;-86
2022/03/19 01:35:50;;;;;;;25.23;18.70;;;0.40;99.90;0.60;98838.00;;;;5058188;28;20818;-87
2022/03/19 01:38:40;;;;;;;27.00;18.47;;;0.90;99.90;0.10;98838.00;;;;5055387;28;20439;-86
2022/03/19 01:41:29;;;;;;;23.53;15.77;;;0.80;99.90;-0.30;98818.00;;;;5052252;28;20431;-86
2022/03/19 01:44:22;;;;;;;22.30;13.97;;;0.20;99.90;-0.60;98823.00;;;;5051867;28;20438;-86
2022/03/19 01:47:11;;;;;;;27.43;18.77;;;0.20;99.90;-0.40;98822.00;;;;5051734;28;20438;-86
2022/03/19 01:50:00;;;;;;;26.70;18.37;;;0.80;99.90;-0.30;98815.00;;;;5051493;28;20426;-86
2022/03/19 01:52:49;;;;;;;19.87;15.57;;;0.70;99.90;-0.50;98815.00;;;;5049217;28;20466;-86
2022/03/19 01:55:40;;;;;;;22.23;16.87;;;-0.20;99.90;-0.90;98811.00;;;;5066291;28;20439;-86
2022/03/19 01:58:29;;;;;;;26.33;18.67;;;-0.30;99.90;-0.50;98806.00;;;;5049774;28;20431;-86
2022/03/19 02:01:17;;;;;;;28.80;18.77;;;-0.70;99.90;-0.20;98817.00;;;;5050587;28;20432;-86
2022/03/19 02:04:08;;;;;;;20.53;11.87;;;0.10;99.90;-0.90;98809.00;;;;5054229;28;20434;-86
2022/03/19 02:06:57;;;;;;;12.37;9.40;;;-0.10;99.90;-1.10;98800.00;;;;5051542;28;20471;-86
2022/03/19 02:09:47;;;;;;;26.43;19.27;;;-1.00;99.90;-0.90;98797.00;;;;5052402;28;20458;-86
2022/03/19 02:12:37;;;;;;;29.37;16.67;;;-0.40;99.90;-0.50;98810.00;;;;5050965;28;20459;-86
2022/03/19 02:15:26;;;;;;;26.00;18.77;;;-0.10;99.90;-0.40;98807.00;;;;5062583;28;20440;-86
2022/03/19 02:18:14;;;;;;;27.67;18.23;;;-0.60;99.90;-0.70;98803.00;;;;5066896;28;20427;-86
2022/03/19 02:21:03;;;;;;;21.83;12.87;;;-0.80;99.90;-1.10;98799.00;;;;5051672;28;20435;-86
2022/03/19 02:27:05;;;;;;;27.47;18.43;;;0.20;99.90;-0.60;98799.00;;;;5048442;28;20471;-86
2022/03/19 02:29:56;;;;;;;27.97;18.47;;;-0.60;99.90;-0.30;98798.00;;;;5052027;28;20419;-86
2022/03/19 02:32:49;;;;;;;24.03;18.60;;;-0.20;99.90;-0.20;98799.00;;;;5060717;28;20456;-86
2022/03/19 02:35:38;;;;;;;20.80;15.30;;;0.40;99.90;-0.40;98796.00;;;;5067565;28;20972;-86
2022/03/19 02:38:27;;;;;;;25.87;18.60;;;-0.30;99.90;-0.80;98788.00;;;;5058673;28;20427;-86
2022/03/19 02:41:17;;;;;;;26.67;19.40;;;-0.20;99.90;-0.90;98780.00;;;;5054443;28;20492;-86
2022/03/19 02:44:06;;;;;;;21.43;17.10;;;-0.80;99.90;-1.30;98770.00;;;;5056082;28;20436;-86
2022/03/19 02:46:57;;;;;;;22.10;15.63;;;-0.50;99.90;-1.40;98776.00;;;;5053837;28;20471;-86
2022/03/19 02:49:46;;;;;;;25.93;16.67;;;-1.10;99.90;-1.40;98788.00;;;;5054071;28;20970;-86
2022/03/19 02:52:34;;;;;;;18.03;12.73;;;-0.90;99.90;-1.30;98772.00;;;;5053802;28;20443;-86
2022/03/19 02:55:23;;;;;;;24.83;18.00;;;-1.20;99.90;-0.70;98777.00;;;;5052644;28;20798;-86
2022/03/19 02:58:14;;;;;;;28.03;19.73;;;-0.60;99.90;-0.60;98775.00;;;;5058603;28;20936;-87
2022/03/19 03:01:03;;;;;;;21.87;18.07;;;-0.80;99.90;-0.50;98777.00;;;;5054484;28;20978;-86
2022/03/19 03:03:52;;;;;;;27.70;20.43;;;-0.60;99.90;-0.60;98780.00;;;;5055110;28;20509;-86
2022/03/19 03:06:45;;;;;;;23.93;16.67;;;-0.70;99.90;-0.90;98780.00;;;;5054767;28;20466;-86
2022/03/19 03:09:34;;;;;;;28.70;18.47;;;-0.10;99.90;-1.50;98778.00;;;;5055274;28;20948;-86
2022/03/19 03:12:24;;;;;;;26.20;18.00;;;-1.00;99.90;-1.40;98765.00;;;;5052985;28;20603;-86
2022/03/19 03:15:14;;;;;;;28.87;18.30;;;-1.30;99.90;-1.80;98762.00;;;;5058420;28;20512;-86
2022/03/19 03:18:05;;;;;;;25.03;16.30;;;-1.10;99.90;-1.80;98748.00;;;;5062557;28;20932;-86
2022/03/19 03:20:54;;;;;;;25.20;17.40;;;-1.20;99.90;-1.60;98760.00;;;;5052921;28;20445;-86
2022/03/19 03:23:43;;;;;;;23.77;18.60;;;-1.30;99.90;-1.80;98760.00;;;;5055003;28;20451;-86
2022/03/19 03:26:32;;;;;;;25.40;18.13;;;-1.40;99.90;-1.80;98754.00;;;;5057136;28;20463;-86
2022/03/19 03:29:21;;;;;;;17.87;12.67;;;-1.00;99.90;-2.00;98745.00;;;;5055212;28;20426;-86
2022/03/19 03:32:12;;;;;;;18.83;12.00;;;-1.40;99.90;-2.10;98748.00;;;;5054496;28;20446;-86
2022/03/19 03:35:00;;;;;;;22.67;17.40;;;-0.70;99.90;-1.80;98744.00;;;;5053730;28;20420;-86
2022/03/19 03:37:49;;;;;;;30.37;19.70;;;-1.40;99.90;-1.60;98749.00;;;;5062551;28;20956;-85
2022/03/19 03:40:38;;;;;;;24.97;16.33;;;-1.10;99.90;-1.80;98727.00;;;;5052215;28;20450;-86
2022/03/19 03:43:27;;;;;;;26.97;15.80;;;-1.50;99.90;-2.50;98730.00;;;;5051200;28;20834;-86
2022/03/19 03:46:16;;;;;;;26.50;17.57;;;-1.70;99.90;-2.10;98729.00;;;;5056930;28;20475;-85
2022/03/19 03:49:08;;;;;;;27.97;16.60;;;-1.60;99.90;-1.90;98737.00;;;;5055568;28;20426;-86
2022/03/19 03:51:56;;;;;;;18.67;14.10;;;-1.00;99.90;-2.10;98729.00;;;;5053542;28;20846;-86
2022/03/19 03:54:45;;;;;;;23.87;17.40;;;-1.10;99.90;-2.20;98719.00;;;;5054347;28;20436;-86
2022/03/19 03:57:35;;;;;;;12.67;9.00;;;-1.60;99.90;-2.30;98721.00;;;;5062453;28;20450;-86
2022/03/19 04:00:24;;;;;;;26.67;18.43;;;-1.90;99.90;-2.10;98724.00;;;;5062435;28;20439;-86
2022/03/19 04:03:13;;;;;;;31.33;19.07;;;-1.70;99.90;-2.10;98725.00;;;;5051861;28;20497;-86
2022/03/19 04:06:05;;;;;;;26.27;19.63;;;-1.80;99.90;-2.00;98723.00;;;;5052754;28;20481;-86
2022/03/19 04:08:53;;;;;;;30.33;19.00;;;-1.80;99.90;-1.80;98718.00;;;;5056394;28;20435;-86
2022/03/19 04:11:42;;;;;;;28.87;18.93;;;-2.00;99.90;-2.10;98709.00;;;;5050893;28;20420;-86
2022/03/19 04:14:31;;;;;;;33.27;17.30;;;-1.80;99.90;-1.90;98712.00;;;;5056972;28;20426;-86
2022/03/19 04:17:20;;;;;;;30.60;18.80;;;-1.40;99.90;-2.00;98711.00;;;;5061712;28;20431;-86
2022/03/19 04:20:11;;;;;;;28.70;18.27;;;-1.80;99.90;-2.00;98709.00;;;;5061327;28;20814;-86
2022/03/19 04:23:01;;;;;;;31.97;20.23;;;-1.70;99.90;-1.70;98703.00;;;;5050782;28;20443;-86
2022/03/19 04:25:50;;;;;;;29.73;19.93;;;-1.70;99.90;-1.70;98701.00;;;;5052114;28;20438;-86
2022/03/19 04:28:39;;;;;;;27.53;19.97;;;-1.70;99.90;-1.90;98695.00;;;;5056179;28;20431;-87
2022/03/19 04:31:28;;;;;;;26.13;18.00;;;-2.30;99.90;-2.00;98692.00;;;;5058914;28;20424;-86
2022/03/19 04:34:17;;;;;;;30.17;18.90;;;-0.80;99.90;-2.00;98687.00;;;;5056084;28;20465;-86
2022/03/19 04:37:06;;;;;;;28.77;18.20;;;-1.90;99.90;-2.20;98687.00;;;;5054803;28;20423;-86
2022/03/19 04:39:56;;;;;;;28.20;16.40;;;-1.90;99.90;-2.20;98696.00;;;;5056221;28;20439;-86
2022/03/19 04:42:45;;;;;;;26.43;18.67;;;-1.90;99.90;-2.00;98704.00;;;;5051949;28;20439;-86
2022/03/19 04:45:35;;;;;;;32.20;20.80;;;-1.90;99.90;-2.00;98699.00;;;;5052179;28;20446;-86
2022/03/19 04:48:24;;;;;;;17.50;13.77;;;-1.40;99.90;-2.20;98703.00;;;;5052304;28;20463;-86
2022/03/19 04:51:14;;;;;;;21.27;13.57;;;-2.40;99.90;-2.50;98696.00;;;;5062080;28;20437;-87
2022/03/19 04:54:03;;;;;;;24.70;16.23;;;-2.50;99.90;-2.50;98684.00;;;;5049473;28;20419;-86
2022/03/19 04:56:53;;;;;;;32.87;20.53;;;-2.10;99.90;-2.10;98694.00;;;;5055293;28;20939;-86
2022/03/19 04:59:42;;;;;;;28.87;15.63;;;-2.10;99.90;-2.30;98689.00;;;;5052341;28;20998;-86
2022/03/19 05:02:31;;;;;;;27.23;19.57;;;-1.90;99.90;-2.30;98679.00;;;;5053431;28;20951;-87
2022/03/19 05:05:24;;;;;;;27.47;19.53;;;-2.00;99.90;-2.20;98678.00;;;;5050564;28;20465;-86
2022/03/19 05:08:14;;;;;;;21.13;15.93;;;-2.10;99.90;-2.30;98679.00;;;;5049652;28;20549;-86
2022/03/19 05:11:14;;;;;;;27.03;17.93;;;-2.00;99.90;-2.40;98674.00;;;;5049600;28;20435;-86
2022/03/19 05:14:04;;;;;;;17.20;14.30;;;-2.00;99.90;-2.00;98681.00;;;;5057909;28;20423;-87
2022/03/19 05:16:53;;;;;;;19.20;15.70;;;-1.90;99.90;-2.30;98663.00;;;;5066628;28;20415;-86
2022/03/19 05:19:42;;;;;;;24.00;18.90;;;-1.90;99.90;-2.00;98673.00;;;;5050295;28;20808;-87
2022/03/19 05:22:31;;;;;;;26.40;18.20;;;0.10;99.90;-1.90;98672.00;;;;5057278;28;20826;-86
2022/03/19 05:25:20;;;;;;;20.43;16.17;;;-1.80;99.90;-1.90;98670.00;;;;5049889;28;20808;-86
2022/03/19 05:28:09;;;;;;;26.53;19.97;;;-1.80;99.90;-1.90;98676.00;;;;5051151;28;20467;-86
2022/03/19 05:31:12;;;;;;;31.33;18.87;;;-1.80;99.90;-1.80;98668.00;;;;5050577;28;20427;-87
2022/03/19 05:37:11;;;;;;;28.90;17.20;;;-1.90;99.90;-2.00;98665.00;;;;5076890;28;20416;-87
2022/03/19 05:40:00;;;;;;;21.77;14.17;;;-2.20;99.90;-1.90;98667.00;;;;5075034;28;20426;-87
2022/03/19 05:42:50;;;;;;;27.20;19.13;;;-1.70;99.90;-1.70;98663.00;;;;5060199;28;20455;-87
2022/03/19 05:45:38;;;;;;;23.60;16.77;;;-1.20;99.90;-1.60;98666.00;;;;5048830;28;20434;-87
2022/03/19 05:48:28;;;;;;;26.17;17.23;;;-0.70;99.90;-1.60;98661.00;;;;5048669;28;20464;-86
2022/03/19 05:51:17;;;;;;;31.27;20.23;;;-0.70;99.90;-1.50;98669.00;;;;5049352;28;20424;-86
2022/03/19 05:54:06;;;;;;;23.20;16.77;;;-1.80;99.90;-1.30;98667.00;;;;5049471;28;20443;-86
2022/03/19 05:56:56;;;;;;;20.83;15.93;;;-0.70;99.90;-1.30;98670.00;;;;5057417;28;20440;-87
2022/03/19 05:59:44;;;;;;;28.70;18.80;;;-1.70;99.90;-1.00;98667.00;;;;5049740;28;20940;-86
2022/03/19 06:02:37;;;;;;;22.77;12.57;;;-1.00;99.90;-1.00;98662.00;;;;5071173;28;20827;-86
2022/03/19 06:05:28;;;;;;;28.20;18.63;;;-0.40;99.90;-0.90;98671.00;;;;5060055;28;20416;-86
2022/03/19 06:08:17;;;;;;;31.57;19.97;;;0.00;99.90;-0.80;98665.00;;;;5057447;28;20458;-86
2022/03/19 06:11:05;;;;;;;26.40;17.87;;;-0.30;99.90;-0.70;98663.00;;;;5058216;28;20428;-86
2022/03/19 06:13:54;;;;;;;28.40;18.63;;;-0.40;99.90;-0.90;98667.00;;;;5053824;28;20460;-86
2022/03/19 06:16:43;;;;;;;32.67;15.13;;;0.00;99.90;-0.60;98664.00;;;;5064343;28;20430;-86
2022/03/19 06:19:32;;;;;;;26.17;18.40;;;-1.10;99.90;-0.80;98649.00;;;;5049478;28;20492;-86
2022/03/19 06:22:22;;;;;;;18.30;11.10;;;-1.00;99.90;-1.10;98652.00;;;;5061665;28;20454;-86
2022/03/19 06:25:11;;;;;;;27.77;19.17;;;-0.20;99.90;-0.70;98650.00;;;;5058845;28;20427;-86
2022/03/19 06:28:00;;;;;;;30.20;20.67;;;-1.10;99.90;-0.30;98660.00;;;;5048179;28;20470;-86
2022/03/19 06:30:49;;;;;;;26.90;19.53;;;0.00;99.90;-0.40;98646.00;;;;5057078;28;20834;-85
2022/03/19 06:33:41;;;;;;;24.33;16.63;;;0.00;99.90;-0.60;98642.00;;;;5057650;28;20481;-86
2022/03/19 06:39:38;;;;;;;18.97;11.97;;;-0.80;99.90;-0.30;98638.00;;;;5061020;28;20454;-86
2022/03/19 06:42:27;;;;;;;22.63;16.13;;;0.00;99.90;-0.30;98634.00;;;;5049692;28;20456;-85
2022/03/19 06:45:16;;;;;;;26.43;18.17;;;0.00;99.90;0.00;98635.00;;;;5049159;28;20903;-86
2022/03/19 06:48:06;;;;;;;18.67;15.43;;;0.50;99.90;-0.10;98635.00;;;;5061649;28;20821;-85
2022/03/19 06:50:55;;;;;;;26.63;20.03;;;0.00;99.90;0.10;98638.00;;;;5064536;28;20434;-86
2022/03/19 06:53:44;;;;;;;26.33;18.23;;;0.10;99.90;0.50;98643.00;;;;5066424;28;20445;-86
2022/03/19 06:56:35;;;;;;;29.80;19.53;;;0.70;99.90;0.50;98642.00;;;;5056170;28;20427;-87
2022/03/19 06:59:24;;;;;;;27.90;20.63;;;0.30;99.90;0.70;98643.00;;;;5054582;28;20457;-86
2022/03/19 07:02:13;;;;;;;29.30;19.40;;;0.40;99.90;0.80;98637.00;;;;5060451;28;20465;-85
2022/03/19 07:05:01;;;;;;;28.97;19.23;;;0.70;99.90;1.00;98640.00;;;;5065189;28;20426;-86
2022/03/19 07:07:51;;;;;;;28.20;18.73;;;0.60;99.90;0.80;98637.00;;;;5071298;28;20473;-86
2022/03/19 07:10:40;;;;;;;19.83;14.27;;;1.10;99.90;0.80;98625.00;;;;5058075;28;20449;-85
2022/03/19 07:13:31;;;;;;;24.30;19.23;;;0.90;99.90;1.10;98618.00;;;;5064116;28;20469;-86
2022/03/19 07:16:20;;;;;;;27.90;19.07;;;1.10;99.90;1.40;98628.00;;;;5057445;28;20437;-85
2022/03/19 07:19:09;;;;;;;30.37;19.20;;;1.00;99.90;1.40;98625.00;;;;5062754;28;20633;-86
2022/03/19 07:21:58;;;;;;;30.90;20.07;;;1.30;99.90;1.60;98623.00;;;;5068067;28;20441;-85
2022/03/19 07:24:47;;;;;;;27.20;20.37;;;1.20;99.90;2.10;98624.00;;;;5054669;28;20442;-85
2022/03/19 07:27:36;;;;;;;28.87;19.00;;;1.40;99.90;2.60;98624.00;;;;5062949;28;20438;-86
2022/03/19 07:30:27;;;;;;;29.93;20.00;;;1.60;99.90;2.50;98619.00;;;;5075737;28;20437;-86
2022/03/19 07:33:16;;;;;;;29.87;19.43;;;1.90;99.90;2.90;98623.00;;;;5067183;28;20450;-86
2022/03/19 07:36:05;;;;;;;29.40;19.80;;;2.10;99.90;3.50;98623.00;;;;5068252;28;20428;-86
2022/03/19 07:38:54;;;;;;;28.60;21.07;;;2.40;99.90;3.60;98621.00;;;;5054117;23;20499;-68
2022/03/19 07:41:50;;;;;;;26.53;19.33;;;2.70;99.90;3.60;98625.00;;;;5050195;28;20447;-68
2022/03/19 07:44:39;;;;;;;27.47;20.50;;;2.90;99.90;3.70;98625.00;;;;5046037;28;20416;-68
2022/03/19 07:47:30;;;;;;;27.00;19.67;;;3.10;99.90;3.50;98626.00;;;;5042272;28;20431;-68
2022/03/19 07:50:19;;;;;;;24.17;18.80;;;3.20;99.90;3.60;98626.00;;;;5043256;28;20533;-68
2022/03/19 07:53:09;;;;;;;33.50;21.63;;;3.30;99.90;3.60;98623.00;;;;5039952;28;20440;-68
2022/03/19 07:55:57;;;;;;;26.93;20.00;;;3.40;99.90;3.50;98623.00;;;;5042776;28;20425;-68
2022/03/19 07:58:50;;;;;;;32.43;21.10;;;3.40;99.90;3.60;98619.00;;;;5038135;28;20431;-68
2022/03/19 08:01:39;;;;;;;28.73;19.40;;;3.50;99.90;4.30;98623.00;;;;5041085;28;21826;-69
2022/03/19 08:04:30;;;;;;;28.30;20.57;;;3.60;99.90;4.60;98623.00;;;;5046347;28;20428;-68
2022/03/19 08:07:19;;;;;;;25.60;18.90;;;3.70;99.90;4.60;98620.00;;;;5033724;28;20428;-68
2022/03/19 08:10:10;;;;;;;28.00;19.63;;;3.80;99.90;4.60;98613.00;;;;5041460;28;20439;-68
2022/03/19 08:13:05;;;;;;;29.97;20.27;;;3.90;99.90;5.00;98622.00;;;;5039222;28;20980;-69
2022/03/19 08:15:54;;;;;;;25.47;19.87;;;4.10;99.90;5.00;98609.00;;;;5037607;28;20575;-69
2022/03/19 08:18:44;;;;;;;25.60;18.77;;;4.30;99.90;4.80;98626.00;;;;5048342;28;20427;-69
2022/03/19 08:21:35;;;;;;;29.93;18.73;;;4.40;99.90;5.10;98628.00;;;;5037523;28;20457;-69
2022/03/19 08:24:25;;;;;;;28.33;18.90;;;4.50;99.90;4.90;98618.00;;;;5046224;28;20432;-68
2022/03/19 08:27:13;;;;;;;25.13;17.93;;;4.60;99.90;5.40;98620.00;;;;5039048;28;20477;-68
2022/03/19 08:30:03;;;;;;;25.47;18.93;;;4.70;99.90;5.70;98614.00;;;;5033774;28;20460;-69
2022/03/19 08:32:52;;;;;;;27.43;19.57;;;4.80;99.90;5.80;98615.00;;;;5042895;28;20812;-68
2022/03/19 08:35:41;;;;;;;29.00;19.90;;;5.00;99.90;6.10;98624.00;;;;5042209;28;20208;-68
2022/03/19 08:41:38;;;;;;;29.43;19.63;;;5.20;99.90;6.40;98613.00;;;;5043998;28;20220;-68
2022/03/19 08:44:27;;;;;;;29.00;19.37;;;5.30;99.90;6.50;98607.00;;;;5038633;28;20197;-69
2022/03/19 08:47:16;;;;;;;26.27;19.50;;;5.50;99.90;6.40;98613.00;;;;5044023;28;20302;-69
2022/03/19 08:50:07;;;;;;;25.50;19.33;;;5.50;99.90;6.50;98603.00;;;;5051887;28;20256;-69
2022/03/19 08:52:55;;;;;;;27.97;20.97;;;5.60;99.90;6.60;98609.00;;;;5046260;28;20580;-69
2022/03/19 08:55:46;;;;;;;26.67;18.87;;;5.70;99.90;6.70;98606.00;;;;5029612;28;20209;-68
2022/03/19 08:58:37;;;;;;;26.07;20.67;;;5.80;99.90;6.80;98608.00;;;;5032500;28;20208;-68
2022/03/19 09:01:26;;;;;;;30.93;19.53;;;5.90;99.90;7.10;98605.00;;;;5047193;28;20224;-68
2022/03/19 09:04:15;;;;;;;26.37;19.37;;;6.00;99.90;6.90;98593.00;;;;5060078;28;20199;-68
2022/03/19 09:07:04;;;;;;;24.03;19.67;;;6.20;99.90;7.60;98594.00;;;;5039151;28;20258;-68
2022/03/19 09:09:53;;;;;;;27.10;19.73;;;6.30;99.90;7.90;98588.00;;;;5048148;28;20217;-68
2022/03/19 09:12:55;;;;;;;28.80;19.30;;;6.50;99.90;7.80;98584.00;;;;5046209;28;20679;-68
2022/03/19 09:15:44;;;;;;;27.00;20.67;;;6.70;99.90;7.80;98586.00;;;;5042287;28;20207;-68
2022/03/19 09:18:33;;;;;;;27.33;20.07;;;6.90;99.90;8.20;98575.00;;;;5036306;28;20205;-68
2022/03/19 09:21:22;;;;;;;31.77;21.17;;;7.10;99.90;8.60;98590.00;;;;5034574;28;20224;-68
2022/03/19 09:24:11;;;;;;;27.63;20.53;;;7.30;99.90;8.80;98587.00;;;;5043826;28;20215;-68
2022/03/19 09:26:59;;;;;;;24.53;18.97;;;7.50;99.90;9.00;98595.00;;;;5034959;28;20200;-68
2022/03/19 09:29:50;;;;;;;27.43;19.07;;;7.60;99.90;9.00;98587.00;;;;5035570;28;20240;-68
2022/03/19 09:32:38;;;;;;;24.07;18.53;;;7.80;99.90;9.10;98588.00;;;;5034984;28;20664;-68
2022/03/19 09:35:27;;;;;;;25.23;18.47;;;7.90;99.90;9.20;98582.00;;;;5046202;28;20211;-67
2022/03/19 09:38:17;;;;;;;23.73;18.70;;;8.00;99.90;9.40;98584.00;;;;5038264;28;20757;-68
2022/03/19 09:41:07;;;;;;;38.03;24.57;;;8.10;99.90;9.70;98590.00;;;;5042658;28;20236;-68
2022/03/19 09:43:59;;;;;;;34.10;23.67;;;8.20;99.90;9.40;98576.00;;;;5042411;28;20199;-68
2022/03/19 09:46:49;;;;;;;33.40;24.63;;;8.40;99.50;9.70;98567.00;;;;5043442;28;20193;-68
2022/03/19 09:49:38;;;;;;;25.90;20.73;;;8.40;99.00;9.90;98584.00;;;;5038013;28;20213;-68
2022/03/19 09:52:29;;;;;;;28.93;21.23;;;8.60;98.80;9.90;98578.00;;;;5041107;28;20205;-69
2022/03/19 09:55:20;;;;;;;23.60;19.43;;;8.70;97.90;10.10;98585.00;;;;5043416;28;20686;-68
2022/03/19 09:58:09;;;;;;;27.53;20.30;;;8.70;97.10;10.20;98586.00;;;;5040236;28;20199;-68
2022/03/19 10:01:04;;;;;;;25.87;18.47;;;8.80;96.70;9.80;98579.00;;;;5048522;28;20682;-68
2022/03/19 10:04:02;;;;;;;22.17;18.10;;;9.00;94.60;10.00;98585.00;;;;5051437;28;20197;-68
2022/03/19 10:10:00;;;;;;;22.57;18.57;;;9.00;91.70;10.10;98590.00;;;;5049403;28;20236;-68
2022/03/19 10:12:49;;;;;;;24.03;18.43;;;9.00;91.50;9.80;98574.00;;;;5034772;28;20212;-69
2022/03/19 10:15:41;;;;;;;23.60;17.77;;;9.00;90.40;9.60;98575.00;;;;5037931;28;20308;-68
2022/03/19 10:18:31;;;;;;;25.70;17.43;;;9.00;90.00;10.00;98586.00;;;;5038536;28;20203;-69
2022/03/19 10:21:22;;;;;;;24.43;18.87;;;8.90;88.20;10.00;98579.00;;;;5050411;28;20597;-68
2022/03/19 10:24:23;;;;;;;20.77;17.30;;;9.00;87.80;10.10;98571.00;;;;5044690;28;20204;-68
2022/03/19 10:27:19;;;;;;;24.20;17.80;;;9.00;87.00;10.30;98578.00;;;;5047053;28;20573;-68
2022/03/19 10:30:15;;;;;;;20.00;15.13;;;9.10;86.10;8.90;98565.00;;;;5038275;28;20224;-66
2022/03/19 10:33:04;;;;;;;21.17;17.23;;;9.10;81.40;9.90;98572.00;;;;5038098;28;20214;-68
2022/03/19 10:36:06;;;;;;;26.40;18.07;;;9.00;82.70;10.20;98578.00;;;;5035391;28;20609;-68
2022/03/19 10:38:57;;;;;;;20.70;15.63;;;9.10;82.50;10.40;98579.00;;;;5047221;28;20208;-69
2022/03/19 10:41:46;;;;;;;26.33;17.53;;;9.10;81.40;10.20;98571.00;;;;5037449;28;20221;-68
2022/03/19 10:44:40;;;;;;;23.63;17.73;;;9.20;79.90;10.40;98571.00;;;;5038609;28;20210;-69
2022/03/19 10:47:29;;;;;;;21.27;16.03;;;9.30;80.00;10.30;98586.00;;;;5044896;28;20193;-68
2022/03/19 10:50:23;;;;;;;26.03;17.23;;;9.30;79.20;9.20;98572.00;;;;5041143;28;20218;-68
2022/03/19 10:53:14;;;;;;;23.10;17.70;;;9.30;76.00;9.10;98574.00;;;;5049479;28;20216;-68
2022/03/19 10:56:06;;;;;;;24.23;16.87;;;9.00;76.00;9.40;98573.00;;;;5051690;28;20200;-68
2022/03/19 10:58:56;;;;;;;24.97;16.80;;;8.90;76.70;9.50;98574.00;;;;5045705;28;20598;-68
2022/03/19 11:01:48;;;;;;;25.73;16.20;;;8.80;75.70;9.30;98561.00;;;;5051118;28;20698;-68
2022/03/19 11:04:37;;;;;;;23.53;17.47;;;8.80;76.20;8.80;98551.00;;;;5053962;28;20200;-67
2022/03/19 11:07:28;;;;;;;24.73;18.03;;;8.80;76.70;8.90;98544.00;;;;5048341;28;20210;-68
2022/03/19 11:10:19;;;;;;;23.60;18.73;;;8.70;77.30;9.10;98551.00;;;;5040523;28;20236;-68
2022/03/19 11:13:13;;;;;;;23.80;18.47;;;8.70;78.30;8.80;98548.00;;;;5050106;28;20197;-68
2022/03/19 11:16:02;;;;;;;25.97;17.40;;;8.60;78.40;9.50;98548.00;;;;5057101;28;20553;-68
2022/03/19 11:18:54;;;;;;;20.40;17.50;;;8.70;79.70;9.60;98545.00;;;;5053637;28;20314;-68
2022/03/19 11:21:43;;;;;;;20.73;16.30;;;8.70;79.80;10.00;98556.00;;;;5052822;28;20225;-68
2022/03/19 11:24:40;;;;;;;21.50;18.30;;;8.80;80.20;10.10;98554.00;;;;5055159;28;20234;-68
2022/03/19 11:27:32;;;;;;;23.57;17.93;;;9.00;78.50;10.10;98549.00;;;;5053288;28;20205;-68
2022/03/19 11:30:26;;;;;;;22.27;18.27;;;9.00;77.90;10.50;98555.00;;;;5049858;28;20230;-68
2022/03/19 11:33:19;;;;;;;24.00;17.73;;;9.10;78.40;10.30;98546.00;;;;5058026;28;20196;-68
2022/03/19 11:36:10;;;;;;;21.67;16.00;;;9.20;77.60;10.60;98551.00;;;;5052579;28;20223;-67
2022/03/19 11:39:00;;;;;;;23.57;17.97;;;9.30;77.80;9.80;98542.00;;;;5060923;28;20201;-68
2022/03/19 11:41:51;;;;;;;23.30;17.20;;;9.40;75.20;10.20;98534.00;;;;5040549;28;20239;-69
2022/03/19 11:44:49;;;;;;;21.10;16.83;;;9.30;75.10;10.40;98544.00;;;;5047171;28;20204;-68
2022/03/19 11:47:40;;;;;;;22.87;18.20;;;9.40;75.90;10.70;98534.00;;;;5051983;28;20223;-67
2022/03/19 11:50:33;;;;;;;24.77;17.80;;;9.40;76.40;10.90;98536.00;;;;5051450;28;20612;-68
2022/03/19 11:53:26;;;;;;;21.73;16.93;;;9.50;76.60;10.80;98540.00;;;;5047341;28;20207;-69
2022/03/19 11:56:19;;;;;;;24.30;17.63;;;9.60;75.40;10.60;98528.00;;;;5048494;28;20558;-68
2022/03/19 11:59:14;;;;;;;24.20;17.27;;;9.70;74.70;9.50;98535.00;;;;5052649;28;20200;-68
2022/03/19 12:02:09;;;;;;;19.53;16.33;;;9.60;73.10;9.50;98528.00;;;;5053616;28;20773;-68
2022/03/19 12:05:00;;;;;;;21.57;17.17;;;9.50;71.70;9.50;98527.00;;;;5044819;28;20200;-68
2022/03/19 12:07:50;;;;;;;24.00;17.47;;;9.30;72.20;9.80;98538.00;;;;5051628;28;20188;-68
2022/03/19 12:11:01;;;;;;;21.33;15.10;;;9.20;73.30;9.30;98536.00;;;;5050913;28;20238;-68
2022/03/19 12:13:51;;;;;;;22.73;16.90;;;9.20;72.00;9.90;98531.00;;;;5054205;28;20274;-68
2022/03/19 12:16:42;;;;;;;22.90;16.07;;;9.20;72.90;9.10;98515.00;;;;5050357;28;20202;-68
2022/03/19 12:19:54;;;;;;;25.97;17.47;;;9.20;71.70;9.50;98509.00;;;;5052802;28;20197;-68
2022/03/19 12:22:45;;;;;;;26.00;17.40;;;9.20;71.10;9.60;98517.00;;;;5051609;28;20203;-67
2022/03/19 12:25:40;;;;;;;21.70;16.90;;;9.10;72.50;10.10;98514.00;;;;5053453;28;20204;-68
2022/03/19 12:28:30;;;;;;;20.47;15.97;;;9.10;73.50;10.70;98503.00;;;;5045887;28;20204;-68
2022/03/19 12:31:19;;;;;;;23.20;15.77;;;9.40;73.10;10.70;98497.00;;;;5039455;28;20612;-68
2022/03/19 12:34:13;;;;;;;23.13;16.20;;;9.60;72.50;10.60;98497.00;;;;5044938;28;20207;-68
2022/03/19 12:37:04;;;;;;;24.40;18.33;;;9.90;69.20;11.50;98495.00;;;;5048099;28;20205;-68
2022/03/19 12:40:01;;;;;;;19.80;16.07;;;10.10;69.40;12.00;98494.00;;;;5050678;28;20717;-68
2022/03/19 12:42:57;;;;;;;23.17;17.40;;;10.40;68.50;11.20;98487.00;;;;5049937;28;20204;-68
2022/03/19 12:45:52;;;;;;;21.87;16.57;;;10.70;63.20;10.70;98459.00;;;;5051480;28;20688;-68